Upstream stations:
SHEF ID: TIFM7 Elk River near Tiff City, Mo
STATION TYPE:
Regulating: Stage = 15.00, Flow = 21304
PRECIP STAGE STAGE(2) RIV-FLOW BAT-LOAD
in ft ft cfs volt
Ccp-Rev Ccp-Rev Ccp-Rev Ccp-Rev Ccp-Rev
(US/Central)
04/03 00:00 0.00 5.81 5.80 2014 11.54
04/03 01:00 0.00 5.80 5.78 2003 11.50
04/03 02:00 0.00 5.77 5.77 1969 11.49
04/03 03:00 0.00 5.75 5.74 1947 11.48
04/03 04:00 0.00 5.75 5.71 1947 11.48
04/03 05:00 0.00 5.72 5.71 1914 11.53
04/03 06:00 0.00 5.71 5.70 1903 11.45
04/03 07:00 0.00 5.69 5.67 1881 11.43
04/03 08:00 0.00 5.67 5.65 1859 11.49
04/03 09:00 0.00 5.66 5.65 1848 12.52
04/03 10:00 0.00 5.65 5.63 1838 12.63
04/03 11:00 0.00 5.63 5.62 1816 12.73
04/03 12:00 0.00 5.62 5.61 1806 12.81
04/03 13:00 0.00 5.61 5.60 1795 12.84
04/03 14:00 0.00 5.59 5.58 1774 12.41
04/03 15:00 0.00 5.58 5.58 1763 12.67
04/03 16:00 0.00 5.57 5.56 1753 12.35
04/03 17:00 0.00 5.56 5.53 1742 12.22
04/03 18:00 0.00 5.54 5.52 1720 12.21
04/03 19:00 0.00 5.53 5.49 1710 12.15
04/03 20:00 0.00 5.52 5.50 1699 11.94
04/03 21:00 0.00 5.50 5.48 1678 11.60
04/03 22:00 0.00 5.49 5.47 1668 11.54
04/03 23:00 0.00 5.48 5.44 1657 11.53